sensor_id;sensor_type;location;lat;lon;timestamp;pressure;altitude;pressure_sealevel;temperature;humidity
24996;BME280;13016;52.162;21.034;2023-05-09T00:03:33;101733.79;;;12.39;51.81
24996;BME280;13016;52.162;21.034;2023-05-09T00:09:33;101732.66;;;12.29;51.78
24996;BME280;13016;52.162;21.034;2023-05-09T00:15:33;101730.08;;;12.24;52.07
24996;BME280;13016;52.162;21.034;2023-05-09T00:21:33;101725.25;;;12.10;52.15
24996;BME280;13016;52.162;21.034;2023-05-09T00:27:34;101724.98;;;12.08;52.24
24996;BME280;13016;52.162;21.034;2023-05-09T00:33:34;101723.90;;;11.97;52.42
24996;BME280;13016;52.162;21.034;2023-05-09T00:39:35;101717.30;;;11.87;52.86
24996;BME280;13016;52.162;21.034;2023-05-09T00:45:35;101719.77;;;11.83;52.88
24996;BME280;13016;52.162;21.034;2023-05-09T00:51:35;101716.91;;;11.76;53.02
24996;BME280;13016;52.162;21.034;2023-05-09T00:57:36;101716.33;;;11.65;53.02
24996;BME280;13016;52.162;21.034;2023-05-09T01:03:38;101716.25;;;11.58;53.42
24996;BME280;13016;52.162;21.034;2023-05-09T01:09:56;101719.66;;;11.45;53.73
24996;BME280;13016;52.162;21.034;2023-05-09T01:16:07;101719.36;;;11.35;54.12
24996;BME280;13016;52.162;21.034;2023-05-09T01:22:10;101719.38;;;11.39;54.41
24996;BME280;13016;52.162;21.034;2023-05-09T01:28:18;101714.75;;;11.27;54.63
24996;BME280;13016;52.162;21.034;2023-05-09T01:34:25;101710.94;;;11.26;54.73
24996;BME280;13016;52.162;21.034;2023-05-09T01:40:31;101714.38;;;11.28;54.77
24996;BME280;13016;52.162;21.034;2023-05-09T01:46:33;101715.64;;;11.27;54.58
24996;BME280;13016;52.162;21.034;2023-05-09T01:52:35;101715.73;;;11.21;54.50
24996;BME280;13016;52.162;21.034;2023-05-09T01:58:37;101710.64;;;11.12;54.64
24996;BME280;13016;52.162;21.034;2023-05-09T02:04:42;101710.83;;;11.00;54.90
24996;BME280;13016;52.162;21.034;2023-05-09T02:10:43;101705.31;;;10.92;55.41
24996;BME280;13016;52.162;21.034;2023-05-09T02:16:43;101704.15;;;10.99;55.39
24996;BME280;13016;52.162;21.034;2023-05-09T02:22:44;101702.96;;;10.98;55.16
24996;BME280;13016;52.162;21.034;2023-05-09T02:28:45;101703.66;;;10.90;55.11
24996;BME280;13016;52.162;21.034;2023-05-09T02:34:47;101706.02;;;10.79;55.31
24996;BME280;13016;52.162;21.034;2023-05-09T02:40:49;101706.05;;;10.78;55.37
24996;BME280;13016;52.162;21.034;2023-05-09T02:46:49;101704.98;;;10.71;55.50
24996;BME280;13016;52.162;21.034;2023-05-09T02:52:49;101707.30;;;10.56;55.71
24996;BME280;13016;52.162;21.034;2023-05-09T02:58:50;101709.95;;;10.57;55.94
24996;BME280;13016;52.162;21.034;2023-05-09T03:04:50;101707.18;;;10.55;55.90
24996;BME280;13016;52.162;21.034;2023-05-09T03:10:50;101708.38;;;10.47;55.91
24996;BME280;13016;52.162;21.034;2023-05-09T03:16:50;101703.61;;;10.29;56.41
24996;BME280;13016;52.162;21.034;2023-05-09T03:22:51;101710.98;;;10.17;56.66
24996;BME280;13016;52.162;21.034;2023-05-09T03:28:51;101705.39;;;10.15;56.86
24996;BME280;13016;52.162;21.034;2023-05-09T03:34:51;101703.88;;;10.13;57.10
24996;BME280;13016;52.162;21.034;2023-05-09T03:40:52;101708.11;;;10.22;57.28
24996;BME280;13016;52.162;21.034;2023-05-09T03:46:53;101706.96;;;10.34;56.91
24996;BME280;13016;52.162;21.034;2023-05-09T03:52:53;101713.14;;;10.52;56.28
24996;BME280;13016;52.162;21.034;2023-05-09T03:58:53;101716.95;;;10.71;55.28
24996;BME280;13016;52.162;21.034;2023-05-09T04:04:53;101724.98;;;10.60;54.89
24996;BME280;13016;52.162;21.034;2023-05-09T04:10:54;101729.61;;;10.76;54.39
24996;BME280;13016;52.162;21.034;2023-05-09T04:16:54;101732.53;;;10.96;52.54
24996;BME280;13016;52.162;21.034;2023-05-09T04:22:54;101729.20;;;11.16;50.89
24996;BME280;13016;52.162;21.034;2023-05-09T04:28:54;101725.71;;;11.52;49.93
24996;BME280;13016;52.162;21.034;2023-05-09T04:34:55;101731.39;;;11.84;48.85
24996;BME280;13016;52.162;21.034;2023-05-09T04:40:55;101725.15;;;12.16;47.61
24996;BME280;13016;52.162;21.034;2023-05-09T04:46:55;101729.47;;;12.51;46.87
24996;BME280;13016;52.162;21.034;2023-05-09T04:53:04;101730.19;;;12.92;46.52
24996;BME280;13016;52.162;21.034;2023-05-09T04:59:04;101726.30;;;13.27;44.18
24996;BME280;13016;52.162;21.034;2023-05-09T05:05:05;101725.40;;;13.74;41.57
24996;BME280;13016;52.162;21.034;2023-05-09T05:11:06;101728.15;;;13.83;39.87
24996;BME280;13016;52.162;21.034;2023-05-09T05:17:06;101724.63;;;14.44;39.83
24996;BME280;13016;52.162;21.034;2023-05-09T05:23:07;101727.09;;;15.36;39.45
24996;BME280;13016;52.162;21.034;2023-05-09T05:29:08;101735.88;;;16.55;36.79
24996;BME280;13016;52.162;21.034;2023-05-09T05:35:09;101733.59;;;17.64;34.64
24996;BME280;13016;52.162;21.034;2023-05-09T05:41:14;101730.80;;;18.70;32.69
24996;BME280;13016;52.162;21.034;2023-05-09T06:08:34;101728.08;;;22.36;27.73
24996;BME280;13016;52.162;21.034;2023-05-09T06:14:49;101734.14;;;22.83;26.24
24996;BME280;13016;52.162;21.034;2023-05-09T06:21:40;101729.85;;;23.65;25.23
24996;BME280;13016;52.162;21.034;2023-05-09T06:27:52;101728.56;;;24.21;24.37
24996;BME280;13016;52.162;21.034;2023-05-09T06:33:53;101731.65;;;24.85;23.42
24996;BME280;13016;52.162;21.034;2023-05-09T06:39:53;101729.45;;;24.38;23.55
24996;BME280;13016;52.162;21.034;2023-05-09T06:45:53;101730.31;;;24.20;23.51
24996;BME280;13016;52.162;21.034;2023-05-09T06:51:54;101730.94;;;24.41;23.40
24996;BME280;13016;52.162;21.034;2023-05-09T06:57:54;101728.14;;;24.58;22.72
24996;BME280;13016;52.162;21.034;2023-05-09T07:03:56;101728.12;;;24.95;21.93
24996;BME280;13016;52.162;21.034;2023-05-09T07:09:56;101719.32;;;25.02;21.75
24996;BME280;13016;52.162;21.034;2023-05-09T07:15:56;101711.56;;;25.42;21.65
24996;BME280;13016;52.162;21.034;2023-05-09T07:21:56;101704.77;;;24.65;20.33
24996;BME280;13016;52.162;21.034;2023-05-09T07:27:57;101697.35;;;24.09;19.74
24996;BME280;13016;52.162;21.034;2023-05-09T07:33:57;101694.96;;;24.24;18.69
24996;BME280;13016;52.162;21.034;2023-05-09T07:39:58;101685.66;;;24.22;19.12
24996;BME280;13016;52.162;21.034;2023-05-09T07:45:58;101684.64;;;24.44;18.57
24996;BME280;13016;52.162;21.034;2023-05-09T07:51:58;101681.60;;;24.53;18.40
24996;BME280;13016;52.162;21.034;2023-05-09T07:57:58;101675.27;;;24.60;18.31
24996;BME280;13016;52.162;21.034;2023-05-09T08:03:58;101680.67;;;24.60;18.24
24996;BME280;13016;52.162;21.034;2023-05-09T08:09:59;101668.23;;;24.44;17.23
24996;BME280;13016;52.162;21.034;2023-05-09T08:16:00;101658.80;;;23.99;18.20
24996;BME280;13016;52.162;21.034;2023-05-09T08:22:00;101652.05;;;24.18;18.71
24996;BME280;13016;52.162;21.034;2023-05-09T08:28:00;101647.20;;;24.51;18.08
24996;BME280;13016;52.162;21.034;2023-05-09T08:34:00;101643.55;;;23.44;18.20
24996;BME280;13016;52.162;21.034;2023-05-09T08:40:02;101635.86;;;24.04;18.89
24996;BME280;13016;52.162;21.034;2023-05-09T08:46:06;101634.78;;;24.02;17.73
24996;BME280;13016;52.162;21.034;2023-05-09T08:52:08;101626.17;;;23.85;17.44
24996;BME280;13016;52.162;21.034;2023-05-09T08:58:08;101615.86;;;23.90;18.20
24996;BME280;13016;52.162;21.034;2023-05-09T09:04:09;101615.32;;;24.22;17.11
24996;BME280;13016;52.162;21.034;2023-05-09T09:10:10;101606.98;;;24.33;17.42
24996;BME280;13016;52.162;21.034;2023-05-09T09:16:17;101607.94;;;23.66;17.95
24996;BME280;13016;52.162;21.034;2023-05-09T09:22:18;101607.16;;;22.93;17.66
24996;BME280;13016;52.162;21.034;2023-05-09T09:28:19;101590.83;;;22.30;18.75
24996;BME280;13016;52.162;21.034;2023-05-09T09:34:21;101586.73;;;22.29;18.72
24996;BME280;13016;52.162;21.034;2023-05-09T09:40:23;101593.36;;;22.14;19.04
24996;BME280;13016;52.162;21.034;2023-05-09T09:46:23;101582.70;;;22.38;18.64
24996;BME280;13016;52.162;21.034;2023-05-09T09:52:23;101579.02;;;21.89;19.03
24996;BME280;13016;52.162;21.034;2023-05-09T09:58:23;101576.05;;;21.34;19.79
24996;BME280;13016;52.162;21.034;2023-05-09T10:04:43;101569.44;;;21.52;19.62
24996;BME280;13016;52.162;21.034;2023-05-09T10:10:44;101565.25;;;21.30;20.13
24996;BME280;13016;52.162;21.034;2023-05-09T10:16:46;101559.94;;;21.13;20.62
24996;BME280;13016;52.162;21.034;2023-05-09T10:22:47;101551.52;;;21.09;20.71
24996;BME280;13016;52.162;21.034;2023-05-09T10:28:50;101551.08;;;21.03;20.26
24996;BME280;13016;52.162;21.034;2023-05-09T10:34:58;101546.85;;;21.05;21.08
24996;BME280;13016;52.162;21.034;2023-05-09T10:41:01;101535.98;;;21.14;20.83
24996;BME280;13016;52.162;21.034;2023-05-09T10:47:02;101535.67;;;20.87;21.15
24996;BME280;13016;52.162;21.034;2023-05-09T10:59:04;101517.65;;;20.83;21.89
24996;BME280;13016;52.162;21.034;2023-05-09T11:05:15;101516.33;;;20.95;21.91
24996;BME280;13016;52.162;21.034;2023-05-09T11:11:22;101508.05;;;21.19;21.47
24996;BME280;13016;52.162;21.034;2023-05-09T11:23:26;101489.08;;;21.25;20.64
24996;BME280;13016;52.162;21.034;2023-05-09T11:29:27;101483.90;;;21.19;21.00
24996;BME280;13016;52.162;21.034;2023-05-09T11:35:27;101481.82;;;20.83;20.66
24996;BME280;13016;52.162;21.034;2023-05-09T11:41:28;101459.58;;;20.73;20.50
24996;BME280;13016;52.162;21.034;2023-05-09T11:47:28;101453.51;;;20.91;20.85
24996;BME280;13016;52.162;21.034;2023-05-09T11:53:28;101443.40;;;21.02;21.55
24996;BME280;13016;52.162;21.034;2023-05-09T11:59:29;101428.45;;;21.43;21.53
24996;BME280;13016;52.162;21.034;2023-05-09T12:05:29;101425.61;;;21.22;21.72
24996;BME280;13016;52.162;21.034;2023-05-09T12:11:29;101422.96;;;21.08;21.01
24996;BME280;13016;52.162;21.034;2023-05-09T12:17:30;101415.48;;;21.01;21.67
24996;BME280;13016;52.162;21.034;2023-05-09T12:23:33;101417.48;;;21.43;20.72
24996;BME280;13016;52.162;21.034;2023-05-09T12:29:34;101407.57;;;21.35;20.18
24996;BME280;13016;52.162;21.034;2023-05-09T12:35:39;101389.63;;;21.25;20.70
24996;BME280;13016;52.162;21.034;2023-05-09T12:41:44;101385.86;;;21.24;21.33
24996;BME280;13016;52.162;21.034;2023-05-09T12:47:50;101371.35;;;21.45;21.56
24996;BME280;13016;52.162;21.034;2023-05-09T12:53:50;101361.00;;;21.60;21.02
24996;BME280;13016;52.162;21.034;2023-05-09T12:59:57;101359.31;;;21.74;20.96
24996;BME280;13016;52.162;21.034;2023-05-09T13:05:58;101351.77;;;21.45;20.57
24996;BME280;13016;52.162;21.034;2023-05-09T13:11:59;101346.82;;;20.99;20.40
24996;BME280;13016;52.162;21.034;2023-05-09T13:17:59;101341.77;;;21.42;20.74
24996;BME280;13016;52.162;21.034;2023-05-09T13:24:00;101339.73;;;21.37;20.78
24996;BME280;13016;52.162;21.034;2023-05-09T13:30:00;101333.52;;;21.56;21.01
24996;BME280;13016;52.162;21.034;2023-05-09T13:36:00;101325.94;;;21.27;20.86
24996;BME280;13016;52.162;21.034;2023-05-09T13:42:01;101311.83;;;21.23;20.69
24996;BME280;13016;52.162;21.034;2023-05-09T13:48:01;101305.28;;;21.27;20.51
24996;BME280;13016;52.162;21.034;2023-05-09T13:54:01;101305.10;;;21.12;21.28
24996;BME280;13016;52.162;21.034;2023-05-09T14:00:02;101298.95;;;21.28;20.81
24996;BME280;13016;52.162;21.034;2023-05-09T14:06:02;101289.61;;;21.34;20.51
24996;BME280;13016;52.162;21.034;2023-05-09T14:12:03;101286.15;;;21.52;20.95
24996;BME280;13016;52.162;21.034;2023-05-09T14:18:03;101276.56;;;21.80;21.15
24996;BME280;13016;52.162;21.034;2023-05-09T14:24:04;101277.63;;;21.43;20.73
24996;BME280;13016;52.162;21.034;2023-05-09T14:30:05;101260.90;;;21.34;21.15
24996;BME280;13016;52.162;21.034;2023-05-09T14:36:06;101254.56;;;21.19;20.86
24996;BME280;13016;52.162;21.034;2023-05-09T14:42:07;101255.20;;;21.02;21.35
24996;BME280;13016;52.162;21.034;2023-05-09T14:48:07;101255.59;;;21.31;21.39
24996;BME280;13016;52.162;21.034;2023-05-09T14:54:07;101255.33;;;21.26;21.10
24996;BME280;13016;52.162;21.034;2023-05-09T15:00:08;101255.89;;;21.05;21.40
24996;BME280;13016;52.162;21.034;2023-05-09T15:06:08;101242.28;;;21.28;21.18
24996;BME280;13016;52.162;21.034;2023-05-09T15:12:09;101232.39;;;21.22;21.20
24996;BME280;13016;52.162;21.034;2023-05-09T15:18:09;101219.15;;;21.22;21.08
24996;BME280;13016;52.162;21.034;2023-05-09T15:24:09;101216.06;;;21.31;21.05
24996;BME280;13016;52.162;21.034;2023-05-09T15:30:10;101214.06;;;21.41;21.35
24996;BME280;13016;52.162;21.034;2023-05-09T15:36:10;101206.01;;;21.41;21.50
24996;BME280;13016;52.162;21.034;2023-05-09T15:42:11;101198.03;;;21.08;21.53
24996;BME280;13016;52.162;21.034;2023-05-09T15:48:12;101193.71;;;21.04;21.59
24996;BME280;13016;52.162;21.034;2023-05-09T15:54:13;101192.95;;;21.14;21.38
24996;BME280;13016;52.162;21.034;2023-05-09T16:00:13;101191.32;;;21.16;21.63
24996;BME280;13016;52.162;21.034;2023-05-09T16:06:14;101179.07;;;21.17;21.44
24996;BME280;13016;52.162;21.034;2023-05-09T16:12:14;101175.96;;;21.21;21.41
24996;BME280;13016;52.162;21.034;2023-05-09T16:18:14;101168.66;;;21.01;21.75
24996;BME280;13016;52.162;21.034;2023-05-09T16:24:15;101162.39;;;21.07;20.91
24996;BME280;13016;52.162;21.034;2023-05-09T16:30:15;101160.54;;;21.10;21.09
24996;BME280;13016;52.162;21.034;2023-05-09T16:36:15;101154.25;;;21.12;21.09
24996;BME280;13016;52.162;21.034;2023-05-09T16:42:19;101146.59;;;21.03;21.24
24996;BME280;13016;52.162;21.034;2023-05-09T16:48:19;101139.55;;;20.86;21.39
24996;BME280;13016;52.162;21.034;2023-05-09T16:54:19;101133.52;;;20.74;21.48
24996;BME280;13016;52.162;21.034;2023-05-09T17:00:20;101128.26;;;20.79;21.37
24996;BME280;13016;52.162;21.034;2023-05-09T17:06:21;101121.13;;;20.61;21.57
24996;BME280;13016;52.162;21.034;2023-05-09T17:12:21;101118.96;;;20.43;21.19
24996;BME280;13016;52.162;21.034;2023-05-09T17:18:24;101118.29;;;20.45;21.47
24996;BME280;13016;52.162;21.034;2023-05-09T17:24:24;101113.45;;;20.68;21.75
24996;BME280;13016;52.162;21.034;2023-05-09T17:30:24;101115.95;;;20.43;22.39
24996;BME280;13016;52.162;21.034;2023-05-09T17:36:25;101113.24;;;20.37;22.61
24996;BME280;13016;52.162;21.034;2023-05-09T17:42:25;101110.73;;;20.37;23.01
24996;BME280;13016;52.162;21.034;2023-05-09T17:48:25;101113.28;;;20.43;23.07
24996;BME280;13016;52.162;21.034;2023-05-09T17:54:32;101117.64;;;20.30;23.63
24996;BME280;13016;52.162;21.034;2023-05-09T18:00:33;101120.14;;;20.09;24.07
24996;BME280;13016;52.162;21.034;2023-05-09T18:06:33;101119.73;;;19.95;24.32
24996;BME280;13016;52.162;21.034;2023-05-09T18:12:33;101119.91;;;19.83;24.60
24996;BME280;13016;52.162;21.034;2023-05-09T18:18:34;101123.59;;;19.70;24.95
24996;BME280;13016;52.162;21.034;2023-05-09T18:24:34;101122.02;;;19.67;25.26
24996;BME280;13016;52.162;21.034;2023-05-09T18:30:34;101127.98;;;19.55;25.69
24996;BME280;13016;52.162;21.034;2023-05-09T18:36:34;101121.94;;;19.37;25.98
24996;BME280;13016;52.162;21.034;2023-05-09T18:42:34;101124.80;;;18.91;26.49
24996;BME280;13016;52.162;21.034;2023-05-09T18:48:35;101127.95;;;18.66;26.70
24996;BME280;13016;52.162;21.034;2023-05-09T18:54:35;101133.09;;;18.65;26.61
24996;BME280;13016;52.162;21.034;2023-05-09T19:00:35;101130.27;;;18.60;26.64
24996;BME280;13016;52.162;21.034;2023-05-09T19:06:35;101132.38;;;18.50;27.07
24996;BME280;13016;52.162;21.034;2023-05-09T19:12:36;101135.11;;;18.43;27.21
24996;BME280;13016;52.162;21.034;2023-05-09T19:18:36;101124.98;;;18.30;27.63
24996;BME280;13016;52.162;21.034;2023-05-09T19:24:36;101124.45;;;18.15;27.86
24996;BME280;13016;52.162;21.034;2023-05-09T19:30:36;101122.09;;;18.00;28.23
24996;BME280;13016;52.162;21.034;2023-05-09T19:36:36;101123.79;;;17.88;28.45
24996;BME280;13016;52.162;21.034;2023-05-09T19:42:37;101123.31;;;17.81;28.68
24996;BME280;13016;52.162;21.034;2023-05-09T19:48:38;101119.89;;;17.68;29.08
24996;BME280;13016;52.162;21.034;2023-05-09T19:54:38;101113.27;;;17.38;29.61
24996;BME280;13016;52.162;21.034;2023-05-09T20:00:38;101113.67;;;17.10;30.17
24996;BME280;13016;52.162;21.034;2023-05-09T20:06:38;101117.38;;;17.04;30.28
24996;BME280;13016;52.162;21.034;2023-05-09T20:12:39;101119.31;;;17.06;30.40
24996;BME280;13016;52.162;21.034;2023-05-09T20:18:39;101110.67;;;16.94;30.87
24996;BME280;13016;52.162;21.034;2023-05-09T20:24:39;101105.80;;;16.85;31.13
24996;BME280;13016;52.162;21.034;2023-05-09T20:30:40;101103.84;;;16.73;31.45
24996;BME280;13016;52.162;21.034;2023-05-09T20:36:40;101106.30;;;16.69;31.70
24996;BME280;13016;52.162;21.034;2023-05-09T20:42:40;101102.19;;;16.57;32.02
24996;BME280;13016;52.162;21.034;2023-05-09T20:48:40;101098.74;;;16.41;32.40
24996;BME280;13016;52.162;21.034;2023-05-09T20:54:41;101097.20;;;16.21;32.79
24996;BME280;13016;52.162;21.034;2023-05-09T21:00:41;101097.76;;;15.89;33.20
24996;BME280;13016;52.162;21.034;2023-05-09T21:06:41;101096.91;;;15.89;33.20
24996;BME280;13016;52.162;21.034;2023-05-09T21:12:41;101096.30;;;15.85;33.35
24996;BME280;13016;52.162;21.034;2023-05-09T21:18:42;101092.84;;;15.76;33.45
24996;BME280;13016;52.162;21.034;2023-05-09T21:24:42;101095.20;;;15.60;33.66
24996;BME280;13016;52.162;21.034;2023-05-09T21:30:42;101087.88;;;15.48;33.68
24996;BME280;13016;52.162;21.034;2023-05-09T21:36:42;101092.29;;;15.41;33.91
24996;BME280;13016;52.162;21.034;2023-05-09T21:42:43;101088.95;;;15.46;33.98
24996;BME280;13016;52.162;21.034;2023-05-09T21:48:43;101086.79;;;15.36;34.09
24996;BME280;13016;52.162;21.034;2023-05-09T21:54:43;101091.09;;;15.35;34.12
24996;BME280;13016;52.162;21.034;2023-05-09T22:00:43;101085.88;;;15.29;34.22
24996;BME280;13016;52.162;21.034;2023-05-09T22:06:44;101084.28;;;15.16;34.39
24996;BME280;13016;52.162;21.034;2023-05-09T22:12:44;101087.80;;;15.01;34.62
24996;BME280;13016;52.162;21.034;2023-05-09T22:18:44;101087.29;;;14.98;34.69
24996;BME280;13016;52.162;21.034;2023-05-09T22:24:44;101087.48;;;14.84;34.87
24996;BME280;13016;52.162;21.034;2023-05-09T22:30:44;101081.03;;;14.74;35.06
24996;BME280;13016;52.162;21.034;2023-05-09T22:36:45;101077.08;;;14.73;35.10
24996;BME280;13016;52.162;21.034;2023-05-09T22:42:45;101075.54;;;14.66;35.24
24996;BME280;13016;52.162;21.034;2023-05-09T22:48:45;101070.71;;;14.62;35.45
24996;BME280;13016;52.162;21.034;2023-05-09T22:54:46;101072.02;;;14.61;35.39
24996;BME280;13016;52.162;21.034;2023-05-09T23:00:46;101074.91;;;14.52;35.77
24996;BME280;13016;52.162;21.034;2023-05-09T23:06:46;101070.70;;;14.46;35.98
24996;BME280;13016;52.162;21.034;2023-05-09T23:12:46;101068.96;;;14.40;36.38
24996;BME280;13016;52.162;21.034;2023-05-09T23:18:46;101068.31;;;14.23;36.84
24996;BME280;13016;52.162;21.034;2023-05-09T23:24:47;101066.26;;;14.11;37.24
24996;BME280;13016;52.162;21.034;2023-05-09T23:30:47;101062.95;;;13.99;37.57
24996;BME280;13016;52.162;21.034;2023-05-09T23:36:47;101061.54;;;13.91;37.80
24996;BME280;13016;52.162;21.034;2023-05-09T23:42:47;101062.25;;;13.88;37.84
24996;BME280;13016;52.162;21.034;2023-05-09T23:48:48;101059.57;;;13.83;37.99
24996;BME280;13016;52.162;21.034;2023-05-09T23:54:48;101057.92;;;13.64;38.36
